createdAt,value
2022-11-27T00:00:09.639Z,2.68
2022-11-27T00:01:09.554Z,2.67
2022-11-27T00:02:09.550Z,2.57
2022-11-27T00:03:09.594Z,2.59
2022-11-27T00:04:09.327Z,2.60
2022-11-27T00:05:09.217Z,2.55
2022-11-27T00:06:09.126Z,2.62
2022-11-27T00:07:09.044Z,2.63
2022-11-27T00:08:08.960Z,2.63
2022-11-27T00:09:08.876Z,2.62
2022-11-27T00:10:08.785Z,2.60
2022-11-27T00:11:08.708Z,2.67
2022-11-27T00:12:08.621Z,2.56
2022-11-27T00:13:08.535Z,2.63
2022-11-27T00:14:08.448Z,2.60
2022-11-27T00:15:08.362Z,2.55
2022-11-27T00:16:08.290Z,2.50
2022-11-27T00:17:08.189Z,2.52
2022-11-27T00:18:08.103Z,2.55
2022-11-27T00:19:08.022Z,2.49
2022-11-27T00:20:07.935Z,2.52
2022-11-27T00:21:07.848Z,2.44
2022-11-27T00:22:07.763Z,2.38
2022-11-27T00:23:07.685Z,2.42
2022-11-27T00:24:07.591Z,2.46
2022-11-27T00:25:07.510Z,2.42
2022-11-27T00:26:07.433Z,2.42
2022-11-27T00:27:07.339Z,2.31
2022-11-27T00:28:07.258Z,2.30
2022-11-27T00:29:07.197Z,2.26
2022-11-27T00:30:07.084Z,2.32
2022-11-27T00:31:07.052Z,2.31
2022-11-27T00:32:06.914Z,2.26
2022-11-27T00:33:06.828Z,2.28
2022-11-27T00:34:06.747Z,2.34
2022-11-27T00:35:06.663Z,2.35
2022-11-27T00:36:06.574Z,2.28
2022-11-27T00:37:06.486Z,2.21
2022-11-27T00:38:06.402Z,2.20
2022-11-27T00:39:06.311Z,2.10
2022-11-27T00:40:06.233Z,2.12
2022-11-27T00:41:06.147Z,2.20
2022-11-27T00:42:06.065Z,2.14
2022-11-27T00:43:05.974Z,2.10
2022-11-27T00:44:05.888Z,2.13
2022-11-27T00:45:05.801Z,2.09
2022-11-27T00:46:05.815Z,2.10
2022-11-27T00:47:05.745Z,2.10
2022-11-27T00:48:05.544Z,2.06
2022-11-27T00:49:05.460Z,2.14
2022-11-27T00:50:05.381Z,2.05
2022-11-27T00:51:05.289Z,2.06
2022-11-27T00:52:05.205Z,2.02
2022-11-27T00:53:05.119Z,1.99
2022-11-27T00:54:05.038Z,2.06
2022-11-27T00:55:04.951Z,2.01
2022-11-27T00:56:04.864Z,1.94
2022-11-27T00:57:04.778Z,1.92
2022-11-27T00:58:04.692Z,1.84
2022-11-27T00:59:04.603Z,1.92
2022-11-27T01:00:04.523Z,1.86
2022-11-27T01:01:04.441Z,1.98
2022-11-27T01:02:04.435Z,1.94
2022-11-27T01:03:04.309Z,1.94
2022-11-27T01:04:04.180Z,2.06
2022-11-27T01:05:04.095Z,2.01
2022-11-27T01:06:04.010Z,2.03
2022-11-27T01:07:03.921Z,1.98
2022-11-27T01:08:03.864Z,1.86
2022-11-27T01:09:03.755Z,1.83
2022-11-27T01:10:03.666Z,1.84
2022-11-27T01:11:03.580Z,1.80
2022-11-27T01:12:03.498Z,1.83
2022-11-27T01:13:03.414Z,1.77
2022-11-27T01:14:03.327Z,1.83
2022-11-27T01:15:03.249Z,1.83
2022-11-27T01:16:03.208Z,1.82
2022-11-27T01:17:03.078Z,1.79
2022-11-27T01:18:02.983Z,1.76
2022-11-27T01:19:02.896Z,1.74
2022-11-27T01:20:02.816Z,1.79
2022-11-27T01:21:02.737Z,1.80
2022-11-27T01:22:02.643Z,1.79
2022-11-27T01:23:02.555Z,1.83
2022-11-27T01:24:02.472Z,1.77
2022-11-27T01:25:02.380Z,1.74
2022-11-27T01:26:02.307Z,1.69
2022-11-27T01:27:02.211Z,1.59
2022-11-27T01:28:02.129Z,1.65
2022-11-27T01:29:02.040Z,1.64
2022-11-27T01:30:01.962Z,1.59
2022-11-27T01:31:01.896Z,1.62
2022-11-27T01:32:01.789Z,1.58
2022-11-27T01:33:01.782Z,1.65
2022-11-27T01:34:01.618Z,1.68
2022-11-27T01:35:01.526Z,1.66
2022-11-27T01:36:01.447Z,1.79
2022-11-27T01:37:01.359Z,1.76
2022-11-27T01:38:01.269Z,1.76
2022-11-27T01:39:01.185Z,1.79
2022-11-27T01:40:01.100Z,1.79
2022-11-27T01:41:01.016Z,1.80
2022-11-27T01:42:00.928Z,1.82
2022-11-27T01:43:00.843Z,1.82
2022-11-27T01:44:00.760Z,1.82
2022-11-27T01:45:00.671Z,1.87
2022-11-27T01:46:00.640Z,1.94
2022-11-27T01:47:00.617Z,2.01
2022-11-27T01:48:00.410Z,2.02
2022-11-27T01:49:00.327Z,1.99
2022-11-27T01:50:00.248Z,1.84
2022-11-27T01:51:00.157Z,1.82
2022-11-27T01:52:00.076Z,1.80
2022-11-27T01:52:59.986Z,1.87
2022-11-27T01:53:59.897Z,1.84
2022-11-27T01:54:59.815Z,1.83
2022-11-27T01:55:59.726Z,1.80
2022-11-27T01:56:59.639Z,1.73
2022-11-27T01:57:59.557Z,1.77
2022-11-27T01:58:59.467Z,1.83
2022-11-27T01:59:59.388Z,1.91
2022-11-27T02:00:59.298Z,1.80
2022-11-27T02:01:59.281Z,1.83
2022-11-27T02:02:59.334Z,1.82
2022-11-27T02:03:59.042Z,1.83
2022-11-27T02:04:58.994Z,1.82
2022-11-27T02:05:58.872Z,1.74
2022-11-27T02:06:58.789Z,1.73
2022-11-27T02:07:58.747Z,1.77
2022-11-27T02:08:58.611Z,1.68
2022-11-27T02:09:58.529Z,1.76
2022-11-27T02:10:58.440Z,1.77
2022-11-27T02:11:58.360Z,1.77
2022-11-27T02:12:58.273Z,1.74
2022-11-27T02:13:58.186Z,1.79
2022-11-27T02:14:58.105Z,1.76
2022-11-27T02:15:58.047Z,1.82
2022-11-27T02:16:57.924Z,1.79
2022-11-27T02:17:57.845Z,1.82
2022-11-27T02:18:57.755Z,1.77
2022-11-27T02:19:57.672Z,1.74
2022-11-27T02:20:57.582Z,1.80
2022-11-27T02:21:57.505Z,1.69
2022-11-27T02:22:57.414Z,1.66
2022-11-27T02:23:57.328Z,1.62
2022-11-27T02:24:57.246Z,1.77
2022-11-27T02:25:57.159Z,1.77
2022-11-27T02:26:57.071Z,1.76
2022-11-27T02:27:56.983Z,1.80
2022-11-27T02:28:56.896Z,1.77
2022-11-27T02:29:56.814Z,1.82
2022-11-27T02:30:56.766Z,1.82
2022-11-27T02:31:56.644Z,1.76
2022-11-27T02:32:56.556Z,1.82
2022-11-27T02:33:56.471Z,1.82
2022-11-27T02:34:56.393Z,1.84
2022-11-27T02:35:56.300Z,1.83
2022-11-27T02:36:56.213Z,1.83
2022-11-27T02:37:56.130Z,1.80
2022-11-27T02:38:56.041Z,1.76
2022-11-27T02:39:55.959Z,1.79
2022-11-27T02:40:55.876Z,1.83
2022-11-27T02:41:55.788Z,1.82
2022-11-27T02:42:55.796Z,1.82
2022-11-27T02:43:55.611Z,1.84
2022-11-27T02:44:55.529Z,1.87
2022-11-27T02:45:55.443Z,1.83
2022-11-27T02:46:55.425Z,1.84
2022-11-27T02:47:55.272Z,1.87
2022-11-27T02:48:55.186Z,1.79
2022-11-27T02:49:55.097Z,1.82
2022-11-27T02:50:55.010Z,1.84
2022-11-27T02:51:54.926Z,1.87
2022-11-27T02:52:54.840Z,1.84
2022-11-27T02:53:54.764Z,1.92
2022-11-27T02:54:54.666Z,1.90
2022-11-27T02:55:54.583Z,1.84
2022-11-27T02:56:54.497Z,1.87
2022-11-27T02:57:54.413Z,1.82
2022-11-27T02:58:54.425Z,1.79
2022-11-27T02:59:54.242Z,1.64
2022-11-27T03:00:54.157Z,1.65
2022-11-27T03:01:54.105Z,1.61
2022-11-27T03:02:54.157Z,1.72
2022-11-27T03:03:53.906Z,1.68
2022-11-27T03:04:53.822Z,1.80
2022-11-27T03:05:53.731Z,1.65
2022-11-27T03:06:53.647Z,1.74
2022-11-27T03:07:53.595Z,1.68
2022-11-27T03:08:53.486Z,1.74
2022-11-27T03:09:53.382Z,1.69
2022-11-27T03:10:53.296Z,1.62
2022-11-27T03:11:53.217Z,1.59
2022-11-27T03:12:53.135Z,1.61
2022-11-27T03:13:53.046Z,1.54
2022-11-27T03:14:53.057Z,1.44
2022-11-27T03:15:52.923Z,1.50
2022-11-27T03:16:52.780Z,1.40
2022-11-27T03:17:52.699Z,1.41
2022-11-27T03:18:52.616Z,1.41
2022-11-27T03:19:52.523Z,1.37
2022-11-27T03:20:52.442Z,1.44
2022-11-27T03:21:52.353Z,1.38
2022-11-27T03:22:52.272Z,1.36
2022-11-27T03:23:52.183Z,1.43
2022-11-27T03:24:52.096Z,1.43
2022-11-27T03:25:52.013Z,1.43
2022-11-27T03:26:51.922Z,1.41
2022-11-27T03:27:51.842Z,1.43
2022-11-27T03:28:51.768Z,1.43
2022-11-27T03:29:51.666Z,1.41
2022-11-27T03:30:51.733Z,1.43
2022-11-27T03:31:51.495Z,1.37
2022-11-27T03:32:51.411Z,1.44
2022-11-27T03:33:51.323Z,1.44
2022-11-27T03:34:51.237Z,1.48
2022-11-27T03:35:51.155Z,1.46
2022-11-27T03:36:51.068Z,1.54
2022-11-27T03:37:50.981Z,1.40
2022-11-27T03:38:50.890Z,1.38
2022-11-27T03:39:50.807Z,1.48
2022-11-27T03:40:50.722Z,1.48
2022-11-27T03:41:50.636Z,1.52
2022-11-27T03:42:50.551Z,1.46
2022-11-27T03:43:50.464Z,1.48
2022-11-27T03:44:50.378Z,1.52
2022-11-27T03:45:50.300Z,1.50
2022-11-27T03:46:50.357Z,1.44
2022-11-27T03:47:50.220Z,1.46
2022-11-27T03:48:50.045Z,1.50
2022-11-27T03:49:49.949Z,1.54
2022-11-27T03:50:49.874Z,1.47
2022-11-27T03:51:49.782Z,1.47
2022-11-27T03:52:49.695Z,1.52
2022-11-27T03:53:49.605Z,1.55
2022-11-27T03:54:49.517Z,1.52
2022-11-27T03:55:49.436Z,1.47
2022-11-27T03:56:49.349Z,1.48
2022-11-27T03:57:49.261Z,1.43
2022-11-27T03:58:49.170Z,1.44
2022-11-27T03:59:49.090Z,1.40
2022-11-27T04:00:49.001Z,1.43
2022-11-27T04:01:48.980Z,1.38
2022-11-27T04:02:48.921Z,1.44
2022-11-27T04:03:48.802Z,1.52
2022-11-27T04:04:48.659Z,1.46
2022-11-27T04:05:48.578Z,1.50
2022-11-27T04:06:48.485Z,1.52
2022-11-27T04:07:48.421Z,1.56
2022-11-27T04:08:48.313Z,1.50
2022-11-27T04:09:48.233Z,1.61
2022-11-27T04:10:48.145Z,1.61
2022-11-27T04:11:48.056Z,1.61
2022-11-27T04:12:47.975Z,1.54
2022-11-27T04:13:47.885Z,1.52
2022-11-27T04:14:47.795Z,1.52
2022-11-27T04:15:47.748Z,1.54
2022-11-27T04:16:47.629Z,1.52
2022-11-27T04:17:47.543Z,1.52
2022-11-27T04:18:52.702Z,1.61
2022-11-27T04:19:47.466Z,1.56
2022-11-27T04:20:47.282Z,1.65
2022-11-27T04:21:47.203Z,1.55
2022-11-27T04:22:47.111Z,1.59
2022-11-27T04:23:47.025Z,1.48
2022-11-27T04:24:46.938Z,1.52
2022-11-27T04:25:46.856Z,1.46
2022-11-27T04:26:46.789Z,1.48
2022-11-27T04:27:46.684Z,1.38
2022-11-27T04:28:46.594Z,1.47
2022-11-27T04:29:46.510Z,1.50
2022-11-27T04:30:46.425Z,1.52
2022-11-27T04:31:46.432Z,1.50
2022-11-27T04:32:46.251Z,1.54
2022-11-27T04:33:46.168Z,1.52
2022-11-27T04:34:46.076Z,1.48
2022-11-27T04:35:46.091Z,1.47
2022-11-27T04:36:45.908Z,1.46
2022-11-27T04:37:45.826Z,1.47
2022-11-27T04:38:45.732Z,1.43
2022-11-27T04:39:45.650Z,1.38
2022-11-27T04:40:45.570Z,1.43
2022-11-27T04:41:45.476Z,1.40
2022-11-27T04:42:45.392Z,1.41
2022-11-27T04:43:45.309Z,1.44
2022-11-27T04:44:45.220Z,1.40
2022-11-27T04:45:45.135Z,1.48
2022-11-27T04:46:45.086Z,1.40
2022-11-27T04:47:44.958Z,1.44
2022-11-27T04:48:44.877Z,1.41
2022-11-27T04:49:44.788Z,1.44
2022-11-27T04:50:44.707Z,1.37
2022-11-27T04:51:44.710Z,1.38
2022-11-27T04:52:44.536Z,1.32
2022-11-27T04:53:44.446Z,1.28
2022-11-27T04:54:44.362Z,1.32
2022-11-27T04:55:44.270Z,1.34
2022-11-27T04:56:44.195Z,1.28
2022-11-27T04:57:44.104Z,1.30
2022-11-27T04:58:44.021Z,1.26
2022-11-27T04:59:43.935Z,1.40
2022-11-27T05:00:43.976Z,1.34
2022-11-27T05:01:43.760Z,1.28
2022-11-27T05:02:43.725Z,1.32
2022-11-27T05:03:43.584Z,1.41
2022-11-27T05:04:43.508Z,1.43
2022-11-27T05:05:43.415Z,1.44
2022-11-27T05:06:43.326Z,1.41
2022-11-27T05:07:43.422Z,1.43
2022-11-27T05:08:43.161Z,1.44
2022-11-27T05:09:43.066Z,1.47
2022-11-27T05:10:42.986Z,1.44
2022-11-27T05:11:42.899Z,1.47
2022-11-27T05:12:42.815Z,1.40
2022-11-27T05:13:42.726Z,1.41
2022-11-27T05:14:42.916Z,1.41
2022-11-27T05:15:42.552Z,1.37
2022-11-27T05:16:42.468Z,1.41
2022-11-27T05:17:42.381Z,1.44
2022-11-27T05:18:42.297Z,1.44
2022-11-27T05:19:42.206Z,1.46
2022-11-27T05:20:42.124Z,1.41
2022-11-27T05:21:42.038Z,1.38
2022-11-27T05:22:41.950Z,1.36
2022-11-27T05:23:41.958Z,1.29
2022-11-27T05:24:42.100Z,1.30
2022-11-27T05:25:41.692Z,1.41
2022-11-27T05:26:41.607Z,1.29
2022-11-27T05:27:41.518Z,1.30
2022-11-27T05:28:41.435Z,1.28
2022-11-27T05:29:41.353Z,1.23
2022-11-27T05:30:41.263Z,1.26
2022-11-27T05:31:41.328Z,1.23
2022-11-27T05:32:41.095Z,1.28
2022-11-27T05:33:41.007Z,1.25
2022-11-27T05:34:41.192Z,1.30
2022-11-27T05:35:40.833Z,1.29
2022-11-27T05:36:40.748Z,1.25
2022-11-27T05:37:40.659Z,1.30
2022-11-27T05:38:40.571Z,1.30
2022-11-27T05:39:40.585Z,1.44
2022-11-27T05:40:40.404Z,1.43
2022-11-27T05:41:40.315Z,1.38
2022-11-27T05:42:40.229Z,1.48
2022-11-27T05:43:40.144Z,1.40
2022-11-27T05:44:40.339Z,1.37
2022-11-27T05:45:39.973Z,1.41
2022-11-27T05:46:39.951Z,1.30
2022-11-27T05:47:39.802Z,1.37
2022-11-27T05:48:39.714Z,1.30
2022-11-27T05:49:39.629Z,1.28
2022-11-27T05:50:39.541Z,1.26
2022-11-27T05:51:39.455Z,1.36
2022-11-27T05:52:39.369Z,1.26
2022-11-27T05:53:39.283Z,1.29
2022-11-27T05:54:39.418Z,1.29
2022-11-27T05:55:39.227Z,1.38
2022-11-27T05:56:39.026Z,1.30
2022-11-27T05:57:38.938Z,1.30
2022-11-27T05:58:38.854Z,1.30
2022-11-27T05:59:38.775Z,1.23
2022-11-27T06:00:38.682Z,1.22
2022-11-27T06:01:38.635Z,1.23
2022-11-27T06:02:38.634Z,1.25
2022-11-27T06:03:38.446Z,1.25
2022-11-27T06:04:38.694Z,1.28
2022-11-27T06:05:38.251Z,1.28
2022-11-27T06:06:38.165Z,1.23
2022-11-27T06:07:38.197Z,1.29
2022-11-27T06:08:37.992Z,1.26
2022-11-27T06:09:37.921Z,1.20
2022-11-27T06:10:37.821Z,1.26
2022-11-27T06:11:37.829Z,1.28
2022-11-27T06:12:37.655Z,1.28
2022-11-27T06:13:37.569Z,1.38
2022-11-27T06:14:37.514Z,1.25
2022-11-27T06:15:37.394Z,1.30
2022-11-27T06:16:37.415Z,1.28
2022-11-27T06:17:37.220Z,1.26
2022-11-27T06:18:37.138Z,1.26
2022-11-27T06:19:37.044Z,1.26
2022-11-27T06:20:42.217Z,1.28
2022-11-27T06:21:36.875Z,1.25
2022-11-27T06:22:36.789Z,1.30
2022-11-27T06:23:36.708Z,1.29
2022-11-27T06:24:36.615Z,1.28
2022-11-27T06:25:36.528Z,1.30
2022-11-27T06:26:36.453Z,1.28
2022-11-27T06:27:36.468Z,1.36
2022-11-27T06:28:36.270Z,1.29
2022-11-27T06:29:36.188Z,1.38
2022-11-27T06:30:36.100Z,1.34
2022-11-27T06:31:36.049Z,1.36
2022-11-27T06:32:35.927Z,1.44
2022-11-27T06:33:35.842Z,1.30
2022-11-27T06:34:35.763Z,1.50
2022-11-27T06:35:35.668Z,1.41
2022-11-27T06:36:35.583Z,1.40
2022-11-27T06:37:35.496Z,1.37
2022-11-27T06:38:35.415Z,1.47
2022-11-27T06:39:35.325Z,1.47
2022-11-27T06:40:35.239Z,1.46
2022-11-27T06:41:35.151Z,1.41
2022-11-27T06:42:35.065Z,1.40
2022-11-27T06:43:35.081Z,1.44
2022-11-27T06:44:34.895Z,1.43
2022-11-27T06:45:34.855Z,1.43
2022-11-27T06:46:34.719Z,1.40
2022-11-27T06:47:34.632Z,1.44
2022-11-27T06:48:34.551Z,1.41
2022-11-27T06:49:34.459Z,1.48
2022-11-27T06:50:34.378Z,1.43
2022-11-27T06:51:34.292Z,1.46
2022-11-27T06:52:38.805Z,1.44
2022-11-27T06:53:34.115Z,1.43
2022-11-27T06:54:34.031Z,1.47
2022-11-27T06:55:33.954Z,1.48
2022-11-27T06:56:33.864Z,1.48
2022-11-27T06:57:33.774Z,1.38
2022-11-27T06:58:33.687Z,1.52
2022-11-27T06:59:33.700Z,1.47
2022-11-27T07:00:33.566Z,1.50
2022-11-27T07:01:33.492Z,1.50
2022-11-27T07:02:33.432Z,1.50
2022-11-27T07:03:33.262Z,1.50
2022-11-27T07:04:33.169Z,1.50
2022-11-27T07:05:33.089Z,1.56
2022-11-27T07:06:32.997Z,1.56
2022-11-27T07:07:32.959Z,1.58
2022-11-27T07:08:32.825Z,1.59
2022-11-27T07:09:32.738Z,1.65
2022-11-27T07:10:32.656Z,1.65
2022-11-27T07:11:32.571Z,1.68
2022-11-27T07:12:32.488Z,1.64
2022-11-27T07:13:32.397Z,1.72
2022-11-27T07:14:32.307Z,1.72
2022-11-27T07:15:32.313Z,1.66
2022-11-27T07:16:32.236Z,1.69
2022-11-27T07:17:32.054Z,1.74
2022-11-27T07:18:31.967Z,1.72
2022-11-27T07:19:31.874Z,1.73
2022-11-27T07:20:31.790Z,1.68
2022-11-27T07:21:31.708Z,1.79
2022-11-27T07:22:31.620Z,1.66
2022-11-27T07:23:31.533Z,1.74
2022-11-27T07:24:31.449Z,1.76
2022-11-27T07:25:31.357Z,1.77
2022-11-27T07:26:31.280Z,1.79
2022-11-27T07:27:31.186Z,1.79
2022-11-27T07:28:31.105Z,1.82
2022-11-27T07:29:31.017Z,1.79
2022-11-27T07:30:30.929Z,1.82
2022-11-27T07:31:36.922Z,1.84
2022-11-27T07:32:30.864Z,1.86
2022-11-27T07:33:30.667Z,1.82
2022-11-27T07:34:30.584Z,1.84
2022-11-27T07:35:30.502Z,1.87
2022-11-27T07:36:30.417Z,1.95
2022-11-27T07:37:30.325Z,2.03
2022-11-27T07:38:30.240Z,2.01
2022-11-27T07:40:00.338Z,1.95
2022-11-27T07:40:30.066Z,2.12
2022-11-27T07:41:33.909Z,2.10
2022-11-27T07:42:38.054Z,2.09
2022-11-27T07:43:29.806Z,2.10
2022-11-27T07:44:29.723Z,2.13
2022-11-27T07:45:29.674Z,2.16
2022-11-27T07:46:29.554Z,2.09
2022-11-27T07:47:29.467Z,2.05
2022-11-27T07:48:29.474Z,2.06
2022-11-27T07:49:29.292Z,2.12
2022-11-27T07:50:29.209Z,2.13
2022-11-27T07:51:29.122Z,2.17
2022-11-27T07:52:29.041Z,2.05
2022-11-27T07:53:28.945Z,2.20
2022-11-27T07:54:28.858Z,2.26
2022-11-27T07:55:28.775Z,2.21
2022-11-27T07:56:28.697Z,2.23
2022-11-27T07:57:28.602Z,2.26
2022-11-27T07:58:28.517Z,2.28
2022-11-27T07:59:28.429Z,2.28
2022-11-27T08:00:28.348Z,2.28
2022-11-27T08:01:28.337Z,2.32
2022-11-27T08:02:28.174Z,2.42
2022-11-27T08:03:28.089Z,2.35
2022-11-27T08:04:28.151Z,2.37
2022-11-27T08:05:27.916Z,2.37
2022-11-27T08:06:27.828Z,2.37
2022-11-27T08:07:27.779Z,2.46
2022-11-27T08:08:27.664Z,2.35
2022-11-27T08:09:27.574Z,2.44
2022-11-27T08:10:27.542Z,2.44
2022-11-27T08:11:27.400Z,2.32
2022-11-27T08:12:27.323Z,2.39
2022-11-27T08:13:27.235Z,2.46
2022-11-27T08:14:27.144Z,2.38
2022-11-27T08:15:27.060Z,2.55
2022-11-27T08:16:27.006Z,2.56
2022-11-27T08:17:26.890Z,2.57
2022-11-27T08:18:26.800Z,2.52
2022-11-27T08:19:26.712Z,2.56
2022-11-27T08:20:26.736Z,2.53
2022-11-27T08:21:26.543Z,2.50
2022-11-27T08:22:26.456Z,2.59
2022-11-27T08:23:26.366Z,2.66
2022-11-27T08:24:26.284Z,2.57
2022-11-27T08:25:26.198Z,2.59
2022-11-27T08:26:26.110Z,2.62
2022-11-27T08:27:26.030Z,2.68
2022-11-27T08:28:25.941Z,2.70
2022-11-27T08:29:29.885Z,2.60
2022-11-27T08:30:25.883Z,2.66
2022-11-27T08:31:25.724Z,2.63
2022-11-27T08:32:25.599Z,2.63
2022-11-27T08:33:25.509Z,2.80
2022-11-27T08:34:25.429Z,2.71
2022-11-27T08:35:25.335Z,2.68
2022-11-27T08:36:25.364Z,2.71
2022-11-27T08:37:25.165Z,2.68
2022-11-27T08:38:25.084Z,2.84
2022-11-27T08:39:24.995Z,2.73
2022-11-27T08:40:24.960Z,2.84
2022-11-27T08:41:24.829Z,2.86
2022-11-27T08:42:24.766Z,2.88
2022-11-27T08:43:24.651Z,2.84
2022-11-27T08:44:24.569Z,2.85
2022-11-27T08:45:24.539Z,2.77
2022-11-27T08:46:24.395Z,2.85
2022-11-27T08:47:24.311Z,2.91
2022-11-27T08:48:24.224Z,2.92
2022-11-27T08:49:24.139Z,2.95
2022-11-27T08:50:24.068Z,2.95
2022-11-27T08:51:23.972Z,2.96
2022-11-27T08:52:23.980Z,2.86
2022-11-27T08:53:23.797Z,2.88
2022-11-27T08:54:23.711Z,2.99
2022-11-27T08:55:23.622Z,3.01
2022-11-27T08:56:23.536Z,2.89
2022-11-27T08:57:23.455Z,2.98
2022-11-27T08:58:23.367Z,2.93
2022-11-27T08:59:23.282Z,2.98
2022-11-27T09:00:27.709Z,3.01
2022-11-27T09:01:23.212Z,2.93
2022-11-27T09:02:23.032Z,2.95
2022-11-27T09:03:22.942Z,2.96
2022-11-27T09:04:22.871Z,2.89
2022-11-27T09:05:22.770Z,2.99
2022-11-27T09:06:22.684Z,2.92
2022-11-27T09:07:22.658Z,2.93
2022-11-27T09:08:22.607Z,3.01
2022-11-27T09:09:22.429Z,3.04
2022-11-27T09:10:22.341Z,2.99
2022-11-27T09:11:22.258Z,3.06
2022-11-27T09:12:22.171Z,2.96
2022-11-27T09:13:22.100Z,2.99
2022-11-27T09:14:21.997Z,2.99
2022-11-27T09:15:21.914Z,2.99
2022-11-27T09:16:21.880Z,3.01
2022-11-27T09:17:21.745Z,3.03
2022-11-27T09:18:21.650Z,3.06
2022-11-27T09:19:21.570Z,3.13
2022-11-27T09:20:21.487Z,3.14
2022-11-27T09:21:21.398Z,3.16
2022-11-27T09:22:21.310Z,3.22
2022-11-27T09:23:21.229Z,3.16
2022-11-27T09:24:21.238Z,3.13
2022-11-27T09:25:21.065Z,3.22
2022-11-27T09:26:20.967Z,3.25
2022-11-27T09:27:20.899Z,3.22
2022-11-27T09:28:20.811Z,3.29
2022-11-27T09:29:20.716Z,3.25
2022-11-27T09:30:20.624Z,3.25
2022-11-27T09:31:20.544Z,3.34
2022-11-27T09:32:20.523Z,3.31
2022-11-27T09:33:20.373Z,3.34
2022-11-27T09:34:20.284Z,3.28
2022-11-27T09:35:20.283Z,3.44
2022-11-27T09:36:20.112Z,3.43
2022-11-27T09:37:20.049Z,3.46
2022-11-27T09:38:19.942Z,3.43
2022-11-27T09:39:19.857Z,3.39
2022-11-27T09:40:19.864Z,3.39
2022-11-27T09:41:19.689Z,3.48
2022-11-27T09:42:19.603Z,3.37
2022-11-27T09:43:19.515Z,3.29
2022-11-27T09:44:19.428Z,3.41
2022-11-27T09:45:19.344Z,3.41
2022-11-27T09:46:19.297Z,3.41
2022-11-27T09:47:19.178Z,3.39
2022-11-27T09:48:19.091Z,3.53
2022-11-27T09:49:19.006Z,3.44
2022-11-27T09:50:18.918Z,3.47
2022-11-27T09:51:18.836Z,3.48
2022-11-27T09:52:18.749Z,3.51
2022-11-27T09:53:18.663Z,3.54
2022-11-27T09:54:18.577Z,3.64
2022-11-27T09:55:18.505Z,3.54
2022-11-27T09:56:18.507Z,3.65
2022-11-27T09:57:18.324Z,3.61
2022-11-27T09:58:18.231Z,3.61
2022-11-27T09:59:18.153Z,3.61
2022-11-27T10:00:18.065Z,3.69
2022-11-27T10:01:18.035Z,3.68
2022-11-27T10:02:18.098Z,3.61
2022-11-27T10:03:17.866Z,3.75
2022-11-27T10:04:17.738Z,3.66
2022-11-27T10:05:18.035Z,3.65
2022-11-27T10:06:17.555Z,3.72
2022-11-27T10:07:17.510Z,3.66
2022-11-27T10:08:17.385Z,3.68
2022-11-27T10:09:17.300Z,3.64
2022-11-27T10:10:17.214Z,3.68
2022-11-27T10:11:17.127Z,3.72
2022-11-27T10:12:17.136Z,3.84
2022-11-27T10:13:16.961Z,3.62
2022-11-27T10:14:16.875Z,3.65
2022-11-27T10:15:16.789Z,3.75
2022-11-27T10:16:16.747Z,3.66
2022-11-27T10:17:16.615Z,3.71
2022-11-27T10:18:16.526Z,3.72
2022-11-27T10:19:16.446Z,3.82
2022-11-27T10:20:16.363Z,3.84
2022-11-27T10:21:16.281Z,3.79
2022-11-27T10:22:19.697Z,3.82
2022-11-27T10:23:16.106Z,3.79
2022-11-27T10:24:16.018Z,3.83
2022-11-27T10:25:15.933Z,3.86
2022-11-27T10:26:15.846Z,3.84
2022-11-27T10:27:15.769Z,3.84
2022-11-27T10:28:15.779Z,3.84
2022-11-27T10:29:15.594Z,3.92
2022-11-27T10:30:15.520Z,3.87
2022-11-27T10:31:15.449Z,3.90
2022-11-27T10:32:46.865Z,3.94
2022-11-27T10:33:15.256Z,3.84
2022-11-27T10:34:15.166Z,3.93
2022-11-27T10:35:15.080Z,4.07
2022-11-27T10:36:14.994Z,4.00
2022-11-27T10:37:14.920Z,3.98
2022-11-27T10:38:14.824Z,4.05
2022-11-27T10:39:14.740Z,4.08
2022-11-27T10:40:14.656Z,4.05
2022-11-27T10:41:28.460Z,4.10
2022-11-27T10:42:14.487Z,3.98
2022-11-27T10:43:14.398Z,3.98
2022-11-27T10:44:14.407Z,4.01
2022-11-27T10:45:14.233Z,4.05
2022-11-27T10:46:14.229Z,4.04
2022-11-27T10:47:14.085Z,4.10
2022-11-27T10:48:13.973Z,4.10
2022-11-27T10:49:13.890Z,4.10
2022-11-27T10:50:13.807Z,4.12
2022-11-27T10:51:13.723Z,4.18
2022-11-27T10:52:13.638Z,4.11
2022-11-27T10:53:13.550Z,4.08
2022-11-27T10:54:13.465Z,4.11
2022-11-27T10:55:13.382Z,4.18
2022-11-27T10:56:13.301Z,4.08
2022-11-27T10:57:13.213Z,4.15
2022-11-27T10:58:13.122Z,4.07
2022-11-27T10:59:13.047Z,4.08
2022-11-27T11:00:13.064Z,4.10
2022-11-27T11:01:12.941Z,4.16
2022-11-27T11:02:12.830Z,4.15
2022-11-27T11:03:12.702Z,4.15
2022-11-27T11:04:36.511Z,4.10
2022-11-27T11:05:34.572Z,4.11
2022-11-27T11:06:20.926Z,4.11
2022-11-27T11:07:12.427Z,4.08
2022-11-27T11:08:12.276Z,4.15
2022-11-27T11:09:12.199Z,4.08
2022-11-27T11:10:12.108Z,4.04
2022-11-27T11:11:12.025Z,4.10
2022-11-27T11:12:11.935Z,4.11
2022-11-27T11:13:11.855Z,4.19
2022-11-27T11:14:11.767Z,4.19
2022-11-27T11:15:11.685Z,4.19
2022-11-27T11:16:14.719Z,4.16
2022-11-27T11:17:11.585Z,4.18
2022-11-27T11:18:11.430Z,4.11
2022-11-27T11:19:11.344Z,4.20
2022-11-27T11:20:11.261Z,4.10
2022-11-27T11:21:11.176Z,4.16
2022-11-27T11:22:14.544Z,4.12
2022-11-27T11:23:11.008Z,4.16
2022-11-27T11:24:10.918Z,4.16
2022-11-27T11:25:10.834Z,4.20
2022-11-27T11:26:10.747Z,4.23
2022-11-27T11:27:10.665Z,4.16
2022-11-27T11:28:10.581Z,4.19
2022-11-27T11:29:10.496Z,4.15
2022-11-27T11:30:10.411Z,4.16
2022-11-27T11:31:10.517Z,4.28
2022-11-27T11:32:10.443Z,4.20
2022-11-27T11:33:10.157Z,4.20
2022-11-27T11:34:10.071Z,4.25
2022-11-27T11:35:09.990Z,4.22
2022-11-27T11:36:09.897Z,4.23
2022-11-27T11:37:09.817Z,4.23
2022-11-27T11:38:09.761Z,4.20
2022-11-27T11:39:09.652Z,4.20
2022-11-27T11:40:14.642Z,4.32
2022-11-27T11:41:09.476Z,4.22
2022-11-27T11:42:09.395Z,4.20
2022-11-27T11:43:09.310Z,4.29
2022-11-27T11:44:09.224Z,4.23
2022-11-27T11:45:09.137Z,4.19
2022-11-27T11:46:09.256Z,4.34
2022-11-27T11:47:08.970Z,4.41
2022-11-27T11:48:08.976Z,4.34
2022-11-27T11:49:08.798Z,4.40
2022-11-27T11:50:08.712Z,4.37
2022-11-27T11:51:08.626Z,4.41
2022-11-27T11:52:08.544Z,4.38
2022-11-27T11:53:08.462Z,4.40
2022-11-27T11:54:08.390Z,4.38
2022-11-27T11:55:08.287Z,4.36
2022-11-27T11:56:08.209Z,4.32
2022-11-27T11:57:08.124Z,4.36
2022-11-27T11:58:08.035Z,4.37
2022-11-27T11:59:07.953Z,4.37
2022-11-27T12:00:07.871Z,4.32
2022-11-27T12:01:37.728Z,4.36
2022-11-27T12:02:07.763Z,4.36
2022-11-27T12:03:07.614Z,4.37
2022-11-27T12:04:07.716Z,4.43
2022-11-27T12:05:07.446Z,4.43
2022-11-27T12:06:07.360Z,4.44
2022-11-27T12:07:07.274Z,4.48
2022-11-27T12:08:07.228Z,4.46
2022-11-27T12:09:07.105Z,4.46
2022-11-27T12:10:07.015Z,4.47
2022-11-27T12:11:06.937Z,4.47
2022-11-27T12:12:06.851Z,4.48
2022-11-27T12:13:06.767Z,4.44
2022-11-27T12:14:06.685Z,4.46
2022-11-27T12:15:06.598Z,4.52
2022-11-27T12:16:06.548Z,4.41
2022-11-27T12:17:06.485Z,4.43
2022-11-27T12:18:06.341Z,4.52
2022-11-27T12:19:06.260Z,4.48
2022-11-27T12:20:06.270Z,4.50
2022-11-27T12:21:06.085Z,4.52
2022-11-27T12:22:06.007Z,4.48
2022-11-27T12:23:05.919Z,4.52
2022-11-27T12:24:05.837Z,4.66
2022-11-27T12:25:05.747Z,4.55
2022-11-27T12:26:05.664Z,4.56
2022-11-27T12:27:05.577Z,4.56
2022-11-27T12:28:05.492Z,4.58
2022-11-27T12:29:05.416Z,4.55
2022-11-27T12:30:06.331Z,4.56
2022-11-27T12:31:05.435Z,4.61
2022-11-27T12:32:05.212Z,4.55
2022-11-27T12:33:05.077Z,4.68
2022-11-27T12:34:04.986Z,4.66
2022-11-27T12:35:04.901Z,4.76
2022-11-27T12:36:04.957Z,4.64
2022-11-27T12:37:04.743Z,4.69
2022-11-27T12:38:04.644Z,4.65
2022-11-27T12:39:04.564Z,4.69
2022-11-27T12:40:04.482Z,4.68
2022-11-27T12:41:04.402Z,4.69
2022-11-27T12:42:04.311Z,4.73
2022-11-27T12:43:04.229Z,4.65
2022-11-27T12:44:04.139Z,4.62
2022-11-27T12:45:04.059Z,4.66
2022-11-27T12:46:04.009Z,4.65
2022-11-27T12:47:03.923Z,4.69
2022-11-27T12:48:03.803Z,4.68
2022-11-27T12:49:03.718Z,4.83
2022-11-27T12:50:03.630Z,4.88
2022-11-27T12:51:03.556Z,4.91
2022-11-27T12:52:03.589Z,4.80
2022-11-27T12:53:03.384Z,4.95
2022-11-27T12:54:03.291Z,4.93
2022-11-27T12:55:03.210Z,4.95
2022-11-27T12:56:03.121Z,5.00
2022-11-27T12:57:03.095Z,5.03
2022-11-27T12:58:02.956Z,4.98
2022-11-27T12:59:02.875Z,4.98
2022-11-27T13:00:02.783Z,4.99
2022-11-27T13:01:02.767Z,5.05
2022-11-27T13:02:02.814Z,4.99
2022-11-27T13:03:02.612Z,5.08
2022-11-27T13:04:02.449Z,5.08
2022-11-27T13:05:02.391Z,5.08
2022-11-27T13:06:02.277Z,5.06
2022-11-27T13:07:02.230Z,5.05
2022-11-27T13:08:02.369Z,5.13
2022-11-27T13:09:02.034Z,5.17
2022-11-27T13:10:01.942Z,5.06
2022-11-27T13:11:01.855Z,5.10
2022-11-27T13:12:01.941Z,5.23
2022-11-27T13:13:01.686Z,5.10
2022-11-27T13:14:01.612Z,5.14
2022-11-27T13:15:01.521Z,5.16
2022-11-27T13:16:01.512Z,5.16
2022-11-27T13:17:01.416Z,5.14